sensor_id;sensor_type;location;lat;lon;timestamp;P1;durP1;ratioP1;P2;durP2;ratioP2
32633;SDS011;19043;51.012;5.648;2023-01-25T00:00:14;31.65;;;24.40;;
32633;SDS011;19043;51.012;5.648;2023-01-25T00:02:40;30.27;;;23.50;;
32633;SDS011;19043;51.012;5.648;2023-01-25T00:05:05;32.53;;;23.88;;
32633;SDS011;19043;51.012;5.648;2023-01-25T00:07:31;29.00;;;23.90;;
32633;SDS011;19043;51.012;5.648;2023-01-25T00:09:56;37.45;;;25.65;;
32633;SDS011;19043;51.012;5.648;2023-01-25T00:12:21;33.33;;;24.85;;
32633;SDS011;19043;51.012;5.648;2023-01-25T00:14:47;35.90;;;27.00;;
32633;SDS011;19043;51.012;5.648;2023-01-25T00:17:12;35.85;;;26.10;;
32633;SDS011;19043;51.012;5.648;2023-01-25T00:19:38;31.17;;;23.77;;
32633;SDS011;19043;51.012;5.648;2023-01-25T00:22:03;36.22;;;26.85;;
32633;SDS011;19043;51.012;5.648;2023-01-25T00:24:28;33.85;;;24.75;;
32633;SDS011;19043;51.012;5.648;2023-01-25T00:26:54;35.03;;;25.33;;
32633;SDS011;19043;51.012;5.648;2023-01-25T00:29:19;35.13;;;26.23;;
32633;SDS011;19043;51.012;5.648;2023-01-25T00:31:49;37.65;;;25.42;;
32633;SDS011;19043;51.012;5.648;2023-01-25T00:37:10;33.05;;;25.00;;
32633;SDS011;19043;51.012;5.648;2023-01-25T00:39:52;29.40;;;23.63;;
32633;SDS011;19043;51.012;5.648;2023-01-25T00:42:18;31.10;;;24.92;;
32633;SDS011;19043;51.012;5.648;2023-01-25T00:44:44;30.77;;;23.55;;
32633;SDS011;19043;51.012;5.648;2023-01-25T00:47:09;35.60;;;25.05;;
32633;SDS011;19043;51.012;5.648;2023-01-25T00:49:35;35.72;;;24.67;;
32633;SDS011;19043;51.012;5.648;2023-01-25T00:52:01;28.50;;;22.55;;
32633;SDS011;19043;51.012;5.648;2023-01-25T00:54:28;33.28;;;25.27;;
32633;SDS011;19043;51.012;5.648;2023-01-25T00:56:54;33.97;;;26.13;;
32633;SDS011;19043;51.012;5.648;2023-01-25T00:59:20;34.83;;;24.90;;
32633;SDS011;19043;51.012;5.648;2023-01-25T01:01:48;29.50;;;24.40;;
32633;SDS011;19043;51.012;5.648;2023-01-25T01:04:14;45.90;;;27.10;;
32633;SDS011;19043;51.012;5.648;2023-01-25T01:06:40;32.65;;;24.63;;
32633;SDS011;19043;51.012;5.648;2023-01-25T01:09:06;35.53;;;25.35;;
32633;SDS011;19043;51.012;5.648;2023-01-25T01:11:35;36.35;;;24.85;;
32633;SDS011;19043;51.012;5.648;2023-01-25T01:14:00;30.27;;;24.85;;
32633;SDS011;19043;51.012;5.648;2023-01-25T01:16:26;33.78;;;25.45;;
32633;SDS011;19043;51.012;5.648;2023-01-25T01:18:51;32.45;;;26.10;;
32633;SDS011;19043;51.012;5.648;2023-01-25T01:21:17;35.20;;;25.50;;
32633;SDS011;19043;51.012;5.648;2023-01-25T01:23:43;32.45;;;24.80;;
32633;SDS011;19043;51.012;5.648;2023-01-25T01:26:10;35.50;;;25.13;;
32633;SDS011;19043;51.012;5.648;2023-01-25T01:28:38;35.40;;;26.40;;
32633;SDS011;19043;51.012;5.648;2023-01-25T01:31:04;32.67;;;25.80;;
32633;SDS011;19043;51.012;5.648;2023-01-25T01:33:35;34.03;;;24.20;;
32633;SDS011;19043;51.012;5.648;2023-01-25T01:38:33;35.33;;;25.80;;
32633;SDS011;19043;51.012;5.648;2023-01-25T01:40:59;37.60;;;25.80;;
32633;SDS011;19043;51.012;5.648;2023-01-25T01:43:24;34.05;;;25.55;;
32633;SDS011;19043;51.012;5.648;2023-01-25T01:48:33;32.17;;;25.23;;
32633;SDS011;19043;51.012;5.648;2023-01-25T01:51:13;35.35;;;24.67;;
32633;SDS011;19043;51.012;5.648;2023-01-25T01:53:39;33.38;;;25.77;;
32633;SDS011;19043;51.012;5.648;2023-01-25T01:56:08;35.70;;;26.15;;
32633;SDS011;19043;51.012;5.648;2023-01-25T01:58:35;33.33;;;26.35;;
32633;SDS011;19043;51.012;5.648;2023-01-25T02:01:01;34.58;;;26.35;;
32633;SDS011;19043;51.012;5.648;2023-01-25T02:03:26;33.20;;;26.65;;
32633;SDS011;19043;51.012;5.648;2023-01-25T02:06:08;35.10;;;26.50;;
32633;SDS011;19043;51.012;5.648;2023-01-25T02:08:36;32.42;;;25.48;;
32633;SDS011;19043;51.012;5.648;2023-01-25T02:11:04;37.40;;;25.30;;
32633;SDS011;19043;51.012;5.648;2023-01-25T02:13:31;32.72;;;23.52;;
32633;SDS011;19043;51.012;5.648;2023-01-25T02:15:56;36.60;;;27.00;;
32633;SDS011;19043;51.012;5.648;2023-01-25T02:18:22;38.17;;;26.45;;
32633;SDS011;19043;51.012;5.648;2023-01-25T02:20:52;33.15;;;24.88;;
32633;SDS011;19043;51.012;5.648;2023-01-25T02:26:28;34.75;;;25.42;;
32633;SDS011;19043;51.012;5.648;2023-01-25T02:29:04;33.33;;;26.02;;
32633;SDS011;19043;51.012;5.648;2023-01-25T02:31:30;29.20;;;23.45;;
32633;SDS011;19043;51.012;5.648;2023-01-25T02:33:56;29.52;;;24.50;;
32633;SDS011;19043;51.012;5.648;2023-01-25T02:36:28;33.45;;;26.33;;
32633;SDS011;19043;51.012;5.648;2023-01-25T02:38:59;33.03;;;26.52;;
32633;SDS011;19043;51.012;5.648;2023-01-25T02:41:34;33.47;;;25.13;;
32633;SDS011;19043;51.012;5.648;2023-01-25T02:44:01;35.80;;;27.23;;
32633;SDS011;19043;51.012;5.648;2023-01-25T02:46:30;31.00;;;25.23;;
32633;SDS011;19043;51.012;5.648;2023-01-25T02:48:58;33.03;;;25.20;;
32633;SDS011;19043;51.012;5.648;2023-01-25T02:51:24;34.97;;;25.77;;
32633;SDS011;19043;51.012;5.648;2023-01-25T02:53:51;29.30;;;24.42;;
32633;SDS011;19043;51.012;5.648;2023-01-25T02:56:16;35.88;;;26.20;;
32633;SDS011;19043;51.012;5.648;2023-01-25T02:58:43;37.97;;;26.35;;
32633;SDS011;19043;51.012;5.648;2023-01-25T03:01:09;34.83;;;26.52;;
32633;SDS011;19043;51.012;5.648;2023-01-25T03:03:34;36.75;;;27.48;;
32633;SDS011;19043;51.012;5.648;2023-01-25T03:06:00;33.63;;;25.88;;
32633;SDS011;19043;51.012;5.648;2023-01-25T03:08:25;31.13;;;25.27;;
32633;SDS011;19043;51.012;5.648;2023-01-25T03:10:54;35.97;;;27.40;;
32633;SDS011;19043;51.012;5.648;2023-01-25T03:13:20;40.38;;;27.48;;
32633;SDS011;19043;51.012;5.648;2023-01-25T03:15:45;39.92;;;27.35;;
32633;SDS011;19043;51.012;5.648;2023-01-25T03:18:11;32.47;;;26.63;;
32633;SDS011;19043;51.012;5.648;2023-01-25T03:20:36;34.53;;;26.52;;
32633;SDS011;19043;51.012;5.648;2023-01-25T03:23:02;37.10;;;27.45;;
32633;SDS011;19043;51.012;5.648;2023-01-25T03:25:27;29.70;;;25.58;;
32633;SDS011;19043;51.012;5.648;2023-01-25T03:27:52;33.97;;;27.02;;
32633;SDS011;19043;51.012;5.648;2023-01-25T03:30:18;38.83;;;27.38;;
32633;SDS011;19043;51.012;5.648;2023-01-25T03:32:44;36.25;;;27.00;;
32633;SDS011;19043;51.012;5.648;2023-01-25T03:35:09;39.30;;;28.52;;
32633;SDS011;19043;51.012;5.648;2023-01-25T03:37:34;33.75;;;26.88;;
32633;SDS011;19043;51.012;5.648;2023-01-25T03:40:00;35.65;;;27.80;;
32633;SDS011;19043;51.012;5.648;2023-01-25T03:42:25;38.50;;;28.55;;
32633;SDS011;19043;51.012;5.648;2023-01-25T03:44:51;36.42;;;28.83;;
32633;SDS011;19043;51.012;5.648;2023-01-25T03:47:16;35.92;;;27.02;;
32633;SDS011;19043;51.012;5.648;2023-01-25T03:49:41;40.50;;;28.02;;
32633;SDS011;19043;51.012;5.648;2023-01-25T03:52:07;36.67;;;27.88;;
32633;SDS011;19043;51.012;5.648;2023-01-25T03:54:33;37.00;;;28.75;;
32633;SDS011;19043;51.012;5.648;2023-01-25T03:56:58;35.97;;;27.95;;
32633;SDS011;19043;51.012;5.648;2023-01-25T03:59:24;35.30;;;27.08;;
32633;SDS011;19043;51.012;5.648;2023-01-25T04:01:49;35.83;;;26.60;;
32633;SDS011;19043;51.012;5.648;2023-01-25T04:04:15;32.00;;;25.15;;
32633;SDS011;19043;51.012;5.648;2023-01-25T04:06:40;37.95;;;27.52;;
32633;SDS011;19043;51.012;5.648;2023-01-25T04:09:06;36.65;;;26.23;;
32633;SDS011;19043;51.012;5.648;2023-01-25T04:11:31;36.78;;;27.58;;
32633;SDS011;19043;51.012;5.648;2023-01-25T04:13:57;36.65;;;28.80;;
32633;SDS011;19043;51.012;5.648;2023-01-25T04:16:22;38.00;;;28.42;;
32633;SDS011;19043;51.012;5.648;2023-01-25T04:18:48;37.03;;;28.05;;
32633;SDS011;19043;51.012;5.648;2023-01-25T04:21:13;36.38;;;27.08;;
32633;SDS011;19043;51.012;5.648;2023-01-25T04:23:38;37.47;;;28.55;;
32633;SDS011;19043;51.012;5.648;2023-01-25T04:26:05;36.38;;;29.65;;
32633;SDS011;19043;51.012;5.648;2023-01-25T04:28:31;39.53;;;30.48;;
32633;SDS011;19043;51.012;5.648;2023-01-25T04:30:58;47.55;;;31.88;;
32633;SDS011;19043;51.012;5.648;2023-01-25T04:33:23;48.65;;;35.05;;
32633;SDS011;19043;51.012;5.648;2023-01-25T04:35:49;49.47;;;33.92;;
32633;SDS011;19043;51.012;5.648;2023-01-25T04:38:15;46.72;;;34.50;;
32633;SDS011;19043;51.012;5.648;2023-01-25T04:40:41;45.60;;;32.65;;
32633;SDS011;19043;51.012;5.648;2023-01-25T04:43:06;37.92;;;29.85;;
32633;SDS011;19043;51.012;5.648;2023-01-25T04:45:32;44.47;;;31.13;;
32633;SDS011;19043;51.012;5.648;2023-01-25T04:47:59;41.63;;;30.65;;
32633;SDS011;19043;51.012;5.648;2023-01-25T04:50:26;46.65;;;31.58;;
32633;SDS011;19043;51.012;5.648;2023-01-25T04:52:52;44.65;;;31.13;;
32633;SDS011;19043;51.012;5.648;2023-01-25T04:55:18;41.08;;;30.98;;
32633;SDS011;19043;51.012;5.648;2023-01-25T04:57:44;44.42;;;32.42;;
32633;SDS011;19043;51.012;5.648;2023-01-25T05:00:09;37.20;;;30.88;;
32633;SDS011;19043;51.012;5.648;2023-01-25T05:02:35;42.30;;;32.15;;
32633;SDS011;19043;51.012;5.648;2023-01-25T05:05:01;41.35;;;32.88;;
32633;SDS011;19043;51.012;5.648;2023-01-25T05:07:26;44.55;;;32.03;;
32633;SDS011;19043;51.012;5.648;2023-01-25T05:09:52;43.25;;;33.17;;
32633;SDS011;19043;51.012;5.648;2023-01-25T05:12:17;45.80;;;33.95;;
32633;SDS011;19043;51.012;5.648;2023-01-25T05:14:43;44.67;;;32.40;;
32633;SDS011;19043;51.012;5.648;2023-01-25T05:17:08;44.97;;;34.22;;
32633;SDS011;19043;51.012;5.648;2023-01-25T05:19:34;42.35;;;31.27;;
32633;SDS011;19043;51.012;5.648;2023-01-25T05:22:00;47.78;;;32.13;;
32633;SDS011;19043;51.012;5.648;2023-01-25T05:24:27;44.05;;;32.55;;
32633;SDS011;19043;51.012;5.648;2023-01-25T05:26:54;42.58;;;32.05;;
32633;SDS011;19043;51.012;5.648;2023-01-25T05:29:29;48.15;;;33.95;;
32633;SDS011;19043;51.012;5.648;2023-01-25T05:31:57;45.22;;;31.73;;
32633;SDS011;19043;51.012;5.648;2023-01-25T05:34:23;47.10;;;34.45;;
32633;SDS011;19043;51.012;5.648;2023-01-25T05:36:48;51.63;;;33.67;;
32633;SDS011;19043;51.012;5.648;2023-01-25T05:39:13;45.70;;;32.50;;
32633;SDS011;19043;51.012;5.648;2023-01-25T05:41:39;43.25;;;32.80;;
32633;SDS011;19043;51.012;5.648;2023-01-25T05:44:04;48.85;;;33.95;;
32633;SDS011;19043;51.012;5.648;2023-01-25T05:46:30;43.50;;;32.40;;
32633;SDS011;19043;51.012;5.648;2023-01-25T05:48:55;45.15;;;32.65;;
32633;SDS011;19043;51.012;5.648;2023-01-25T05:51:20;44.55;;;31.55;;
32633;SDS011;19043;51.012;5.648;2023-01-25T05:53:46;46.10;;;33.10;;
32633;SDS011;19043;51.012;5.648;2023-01-25T05:56:11;48.83;;;32.10;;
32633;SDS011;19043;51.012;5.648;2023-01-25T05:58:37;41.53;;;30.05;;
32633;SDS011;19043;51.012;5.648;2023-01-25T06:01:04;43.80;;;31.13;;
32633;SDS011;19043;51.012;5.648;2023-01-25T06:03:30;48.53;;;34.92;;
32633;SDS011;19043;51.012;5.648;2023-01-25T06:05:57;44.58;;;32.13;;
32633;SDS011;19043;51.012;5.648;2023-01-25T06:08:23;45.97;;;32.85;;
32633;SDS011;19043;51.012;5.648;2023-01-25T06:10:49;48.72;;;32.20;;
32633;SDS011;19043;51.012;5.648;2023-01-25T06:13:14;45.58;;;31.65;;
32633;SDS011;19043;51.012;5.648;2023-01-25T06:15:40;40.60;;;29.42;;
32633;SDS011;19043;51.012;5.648;2023-01-25T06:18:06;43.25;;;31.63;;
32633;SDS011;19043;51.012;5.648;2023-01-25T06:20:31;43.90;;;31.92;;
32633;SDS011;19043;51.012;5.648;2023-01-25T06:22:57;49.10;;;31.90;;
32633;SDS011;19043;51.012;5.648;2023-01-25T06:25:23;43.15;;;32.50;;
32633;SDS011;19043;51.012;5.648;2023-01-25T06:27:48;43.88;;;30.95;;
32633;SDS011;19043;51.012;5.648;2023-01-25T06:30:14;38.90;;;30.10;;
32633;SDS011;19043;51.012;5.648;2023-01-25T06:32:39;39.55;;;28.92;;
32633;SDS011;19043;51.012;5.648;2023-01-25T06:35:05;41.58;;;27.65;;
32633;SDS011;19043;51.012;5.648;2023-01-25T06:37:30;42.45;;;29.35;;
32633;SDS011;19043;51.012;5.648;2023-01-25T06:39:56;44.28;;;31.38;;
32633;SDS011;19043;51.012;5.648;2023-01-25T06:42:24;45.95;;;31.40;;
32633;SDS011;19043;51.012;5.648;2023-01-25T06:44:50;44.40;;;29.95;;
32633;SDS011;19043;51.012;5.648;2023-01-25T06:47:15;47.78;;;31.30;;
32633;SDS011;19043;51.012;5.648;2023-01-25T06:49:41;43.90;;;29.25;;
32633;SDS011;19043;51.012;5.648;2023-01-25T06:52:06;44.60;;;29.33;;
32633;SDS011;19043;51.012;5.648;2023-01-25T06:54:32;41.13;;;29.15;;
32633;SDS011;19043;51.012;5.648;2023-01-25T06:56:58;45.75;;;30.90;;
32633;SDS011;19043;51.012;5.648;2023-01-25T06:59:23;42.47;;;30.30;;
32633;SDS011;19043;51.012;5.648;2023-01-25T07:01:48;43.25;;;28.55;;
32633;SDS011;19043;51.012;5.648;2023-01-25T07:04:14;42.17;;;29.00;;
32633;SDS011;19043;51.012;5.648;2023-01-25T07:06:39;45.83;;;30.58;;
32633;SDS011;19043;51.012;5.648;2023-01-25T07:09:06;42.72;;;29.52;;
32633;SDS011;19043;51.012;5.648;2023-01-25T07:11:33;52.55;;;34.90;;
32633;SDS011;19043;51.012;5.648;2023-01-25T07:13:59;58.17;;;36.03;;
32633;SDS011;19043;51.012;5.648;2023-01-25T07:16:24;61.88;;;38.88;;
32633;SDS011;19043;51.012;5.648;2023-01-25T07:18:50;56.30;;;37.78;;
32633;SDS011;19043;51.012;5.648;2023-01-25T07:21:20;68.03;;;42.72;;
32633;SDS011;19043;51.012;5.648;2023-01-25T07:23:50;64.80;;;42.75;;
32633;SDS011;19043;51.012;5.648;2023-01-25T07:26:17;61.25;;;41.60;;
32633;SDS011;19043;51.012;5.648;2023-01-25T07:28:47;66.85;;;44.40;;
32633;SDS011;19043;51.012;5.648;2023-01-25T07:31:13;64.50;;;41.08;;
32633;SDS011;19043;51.012;5.648;2023-01-25T07:33:40;58.92;;;40.20;;
32633;SDS011;19043;51.012;5.648;2023-01-25T07:36:06;58.75;;;37.75;;
32633;SDS011;19043;51.012;5.648;2023-01-25T07:38:33;53.55;;;37.20;;
32633;SDS011;19043;51.012;5.648;2023-01-25T07:40:59;63.33;;;38.97;;
32633;SDS011;19043;51.012;5.648;2023-01-25T07:43:25;62.38;;;39.13;;
32633;SDS011;19043;51.012;5.648;2023-01-25T07:45:51;98.63;;;60.08;;
32633;SDS011;19043;51.012;5.648;2023-01-25T07:48:17;66.38;;;41.65;;
32633;SDS011;19043;51.012;5.648;2023-01-25T07:50:43;62.08;;;39.13;;
32633;SDS011;19043;51.012;5.648;2023-01-25T07:53:35;63.10;;;38.35;;
32633;SDS011;19043;51.012;5.648;2023-01-25T07:56:04;61.95;;;39.50;;
32633;SDS011;19043;51.012;5.648;2023-01-25T07:58:30;52.67;;;36.03;;
32633;SDS011;19043;51.012;5.648;2023-01-25T08:00:55;58.85;;;37.05;;
32633;SDS011;19043;51.012;5.648;2023-01-25T08:03:20;59.15;;;39.90;;
32633;SDS011;19043;51.012;5.648;2023-01-25T08:05:46;54.90;;;36.88;;
32633;SDS011;19043;51.012;5.648;2023-01-25T08:08:12;60.03;;;39.15;;
32633;SDS011;19043;51.012;5.648;2023-01-25T08:10:38;63.53;;;41.92;;
32633;SDS011;19043;51.012;5.648;2023-01-25T08:13:03;61.88;;;41.13;;
32633;SDS011;19043;51.012;5.648;2023-01-25T08:15:30;53.33;;;38.45;;
32633;SDS011;19043;51.012;5.648;2023-01-25T08:17:59;61.05;;;40.97;;
32633;SDS011;19043;51.012;5.648;2023-01-25T08:20:25;71.93;;;45.60;;
32633;SDS011;19043;51.012;5.648;2023-01-25T08:22:50;62.53;;;43.17;;
32633;SDS011;19043;51.012;5.648;2023-01-25T08:25:16;60.55;;;41.63;;
32633;SDS011;19043;51.012;5.648;2023-01-25T08:27:42;63.58;;;41.83;;
32633;SDS011;19043;51.012;5.648;2023-01-25T08:30:07;57.40;;;38.75;;
32633;SDS011;19043;51.012;5.648;2023-01-25T08:32:34;62.72;;;40.45;;
32633;SDS011;19043;51.012;5.648;2023-01-25T08:35:00;64.63;;;40.65;;
32633;SDS011;19043;51.012;5.648;2023-01-25T08:37:25;65.68;;;42.47;;
32633;SDS011;19043;51.012;5.648;2023-01-25T08:39:53;66.80;;;41.90;;
32633;SDS011;19043;51.012;5.648;2023-01-25T08:42:21;63.55;;;40.25;;
32633;SDS011;19043;51.012;5.648;2023-01-25T08:44:47;60.90;;;38.35;;
32633;SDS011;19043;51.012;5.648;2023-01-25T08:47:12;58.92;;;36.90;;
32633;SDS011;19043;51.012;5.648;2023-01-25T08:49:37;53.72;;;37.85;;
32633;SDS011;19043;51.012;5.648;2023-01-25T08:52:03;53.03;;;37.58;;
32633;SDS011;19043;51.012;5.648;2023-01-25T08:54:29;54.67;;;36.97;;
32633;SDS011;19043;51.012;5.648;2023-01-25T08:56:54;53.33;;;36.67;;
32633;SDS011;19043;51.012;5.648;2023-01-25T08:59:20;48.20;;;35.90;;
32633;SDS011;19043;51.012;5.648;2023-01-25T09:01:45;54.58;;;38.08;;
32633;SDS011;19043;51.012;5.648;2023-01-25T09:04:11;59.90;;;39.83;;
32633;SDS011;19043;51.012;5.648;2023-01-25T09:06:36;56.30;;;36.70;;
32633;SDS011;19043;51.012;5.648;2023-01-25T09:09:02;51.00;;;37.00;;
32633;SDS011;19043;51.012;5.648;2023-01-25T09:11:28;52.65;;;36.38;;
32633;SDS011;19043;51.012;5.648;2023-01-25T09:13:54;58.17;;;38.55;;
32633;SDS011;19043;51.012;5.648;2023-01-25T09:16:21;58.45;;;39.55;;
32633;SDS011;19043;51.012;5.648;2023-01-25T09:18:52;66.70;;;42.20;;
32633;SDS011;19043;51.012;5.648;2023-01-25T09:21:19;59.20;;;39.78;;
32633;SDS011;19043;51.012;5.648;2023-01-25T09:23:46;62.25;;;40.65;;
32633;SDS011;19043;51.012;5.648;2023-01-25T09:26:13;67.93;;;46.67;;
32633;SDS011;19043;51.012;5.648;2023-01-25T09:28:39;69.10;;;43.65;;
32633;SDS011;19043;51.012;5.648;2023-01-25T09:31:06;67.28;;;46.20;;
32633;SDS011;19043;51.012;5.648;2023-01-25T09:33:33;72.13;;;47.42;;
32633;SDS011;19043;51.012;5.648;2023-01-25T09:36:00;65.55;;;45.80;;
32633;SDS011;19043;51.012;5.648;2023-01-25T09:38:28;70.07;;;46.90;;
32633;SDS011;19043;51.012;5.648;2023-01-25T09:41:01;77.18;;;47.00;;
32633;SDS011;19043;51.012;5.648;2023-01-25T09:46:39;68.88;;;41.47;;
32633;SDS011;19043;51.012;5.648;2023-01-25T09:54:35;65.82;;;41.95;;
32633;SDS011;19043;51.012;5.648;2023-01-25T09:57:04;63.15;;;42.85;;
32633;SDS011;19043;51.012;5.648;2023-01-25T09:59:42;66.18;;;40.70;;
32633;SDS011;19043;51.012;5.648;2023-01-25T10:04:54;64.05;;;39.85;;
32633;SDS011;19043;51.012;5.648;2023-01-25T10:10:00;75.22;;;43.28;;
32633;SDS011;19043;51.012;5.648;2023-01-25T10:12:31;72.30;;;45.22;;
32633;SDS011;19043;51.012;5.648;2023-01-25T10:15:00;68.70;;;44.22;;
32633;SDS011;19043;51.012;5.648;2023-01-25T10:17:36;76.65;;;46.13;;
32633;SDS011;19043;51.012;5.648;2023-01-25T10:22:45;74.55;;;45.55;;
32633;SDS011;19043;51.012;5.648;2023-01-25T10:25:37;69.40;;;45.95;;
32633;SDS011;19043;51.012;5.648;2023-01-25T10:31:01;78.28;;;46.65;;
32633;SDS011;19043;51.012;5.648;2023-01-25T10:33:30;83.28;;;49.40;;
32633;SDS011;19043;51.012;5.648;2023-01-25T10:35:58;82.65;;;51.78;;
32633;SDS011;19043;51.012;5.648;2023-01-25T10:40:53;87.50;;;51.63;;
32633;SDS011;19043;51.012;5.648;2023-01-25T10:43:26;75.18;;;48.25;;
32633;SDS011;19043;51.012;5.648;2023-01-25T10:45:51;74.45;;;47.22;;
32633;SDS011;19043;51.012;5.648;2023-01-25T10:48:18;69.15;;;44.92;;
32633;SDS011;19043;51.012;5.648;2023-01-25T10:50:47;71.13;;;44.20;;
32633;SDS011;19043;51.012;5.648;2023-01-25T10:53:21;79.45;;;45.83;;
32633;SDS011;19043;51.012;5.648;2023-01-25T10:56:21;71.87;;;44.60;;
32633;SDS011;19043;51.012;5.648;2023-01-25T10:58:51;76.90;;;47.63;;
32633;SDS011;19043;51.012;5.648;2023-01-25T11:01:28;75.50;;;48.95;;
32633;SDS011;19043;51.012;5.648;2023-01-25T11:03:55;82.30;;;47.97;;
32633;SDS011;19043;51.012;5.648;2023-01-25T11:06:34;74.95;;;48.38;;
32633;SDS011;19043;51.012;5.648;2023-01-25T11:09:00;72.50;;;46.00;;
32633;SDS011;19043;51.012;5.648;2023-01-25T11:11:31;69.45;;;45.88;;
32633;SDS011;19043;51.012;5.648;2023-01-25T11:14:00;75.50;;;46.28;;
32633;SDS011;19043;51.012;5.648;2023-01-25T11:16:27;78.63;;;46.70;;
32633;SDS011;19043;51.012;5.648;2023-01-25T11:18:55;70.20;;;44.03;;
32633;SDS011;19043;51.012;5.648;2023-01-25T11:21:23;70.82;;;45.45;;
32633;SDS011;19043;51.012;5.648;2023-01-25T11:26:37;68.68;;;42.72;;
32633;SDS011;19043;51.012;5.648;2023-01-25T11:29:10;63.47;;;44.30;;
32633;SDS011;19043;51.012;5.648;2023-01-25T11:31:43;65.70;;;44.10;;
32633;SDS011;19043;51.012;5.648;2023-01-25T11:34:11;72.30;;;46.47;;
32633;SDS011;19043;51.012;5.648;2023-01-25T11:36:43;71.07;;;44.50;;
32633;SDS011;19043;51.012;5.648;2023-01-25T11:42:07;74.25;;;48.78;;
32633;SDS011;19043;51.012;5.648;2023-01-25T11:48:12;80.75;;;47.40;;
32633;SDS011;19043;51.012;5.648;2023-01-25T11:50:27;75.63;;;46.95;;
32633;SDS011;19043;51.012;5.648;2023-01-25T11:55:59;89.53;;;51.15;;
32633;SDS011;19043;51.012;5.648;2023-01-25T12:07:16;79.43;;;47.88;;
32633;SDS011;19043;51.012;5.648;2023-01-25T12:12:36;75.55;;;44.17;;
32633;SDS011;19043;51.012;5.648;2023-01-25T12:21:04;70.30;;;44.03;;
32633;SDS011;19043;51.012;5.648;2023-01-25T12:28:53;63.15;;;38.08;;
32633;SDS011;19043;51.012;5.648;2023-01-25T12:31:25;68.03;;;40.22;;
32633;SDS011;19043;51.012;5.648;2023-01-25T12:34:03;59.05;;;36.60;;
32633;SDS011;19043;51.012;5.648;2023-01-25T12:39:10;52.38;;;34.50;;
32633;SDS011;19043;51.012;5.648;2023-01-25T12:44:37;48.83;;;30.65;;
32633;SDS011;19043;51.012;5.648;2023-01-25T12:49:54;57.33;;;35.33;;
32633;SDS011;19043;51.012;5.648;2023-01-25T12:54:54;52.80;;;34.17;;
32633;SDS011;19043;51.012;5.648;2023-01-25T13:10:34;64.93;;;38.10;;
32633;SDS011;19043;51.012;5.648;2023-01-25T13:13:16;57.03;;;34.17;;
32633;SDS011;19043;51.012;5.648;2023-01-25T13:15:44;56.58;;;33.13;;
32633;SDS011;19043;51.012;5.648;2023-01-25T13:21:00;56.78;;;34.20;;
32633;SDS011;19043;51.012;5.648;2023-01-25T13:34:07;65.05;;;38.72;;
32633;SDS011;19043;51.012;5.648;2023-01-25T13:41:58;58.70;;;37.10;;
32633;SDS011;19043;51.012;5.648;2023-01-25T13:44:29;75.85;;;40.15;;
32633;SDS011;19043;51.012;5.648;2023-01-25T13:46:57;68.88;;;38.72;;
32633;SDS011;19043;51.012;5.648;2023-01-25T13:49:29;64.50;;;37.85;;
32633;SDS011;19043;51.012;5.648;2023-01-25T13:51:59;68.43;;;39.65;;
32633;SDS011;19043;51.012;5.648;2023-01-25T13:54:25;66.25;;;40.15;;
32633;SDS011;19043;51.012;5.648;2023-01-25T13:57:06;71.53;;;39.75;;
32633;SDS011;19043;51.012;5.648;2023-01-25T13:59:36;65.45;;;39.47;;
32633;SDS011;19043;51.012;5.648;2023-01-25T14:02:01;68.88;;;41.88;;
32633;SDS011;19043;51.012;5.648;2023-01-25T14:04:27;65.97;;;41.13;;
32633;SDS011;19043;51.012;5.648;2023-01-25T14:06:58;59.45;;;39.35;;
32633;SDS011;19043;51.012;5.648;2023-01-25T14:09:25;81.72;;;43.95;;
32633;SDS011;19043;51.012;5.648;2023-01-25T14:17:35;78.30;;;47.10;;
32633;SDS011;19043;51.012;5.648;2023-01-25T14:19:46;93.55;;;49.75;;
32633;SDS011;19043;51.012;5.648;2023-01-25T14:25:13;76.82;;;44.65;;
32633;SDS011;19043;51.012;5.648;2023-01-25T14:27:42;93.25;;;48.80;;
32633;SDS011;19043;51.012;5.648;2023-01-25T14:30:16;80.38;;;47.83;;
32633;SDS011;19043;51.012;5.648;2023-01-25T14:32:46;82.88;;;48.78;;
32633;SDS011;19043;51.012;5.648;2023-01-25T14:37:54;88.65;;;49.70;;
32633;SDS011;19043;51.012;5.648;2023-01-25T14:40:22;92.50;;;52.33;;
32633;SDS011;19043;51.012;5.648;2023-01-25T14:42:49;91.60;;;52.97;;
32633;SDS011;19043;51.012;5.648;2023-01-25T14:45:15;91.35;;;51.47;;
32633;SDS011;19043;51.012;5.648;2023-01-25T14:47:41;81.45;;;49.35;;
32633;SDS011;19043;51.012;5.648;2023-01-25T14:53:06;101.90;;;53.67;;
32633;SDS011;19043;51.012;5.648;2023-01-25T14:55:34;92.20;;;53.35;;
32633;SDS011;19043;51.012;5.648;2023-01-25T14:58:00;84.75;;;49.35;;
32633;SDS011;19043;51.012;5.648;2023-01-25T15:00:26;91.00;;;52.15;;
32633;SDS011;19043;51.012;5.648;2023-01-25T15:03:14;83.15;;;50.80;;
32633;SDS011;19043;51.012;5.648;2023-01-25T15:05:43;88.63;;;52.42;;
32633;SDS011;19043;51.012;5.648;2023-01-25T15:10:36;101.07;;;52.33;;
32633;SDS011;19043;51.012;5.648;2023-01-25T15:13:42;89.85;;;52.03;;
32633;SDS011;19043;51.012;5.648;2023-01-25T15:16:08;90.45;;;54.53;;
32633;SDS011;19043;51.012;5.648;2023-01-25T15:18:44;86.47;;;53.15;;
32633;SDS011;19043;51.012;5.648;2023-01-25T15:21:15;97.95;;;54.08;;
32633;SDS011;19043;51.012;5.648;2023-01-25T15:23:43;96.88;;;54.25;;
32633;SDS011;19043;51.012;5.648;2023-01-25T15:26:14;100.68;;;54.72;;
32633;SDS011;19043;51.012;5.648;2023-01-25T15:28:45;89.20;;;52.72;;
32633;SDS011;19043;51.012;5.648;2023-01-25T15:31:18;94.18;;;53.13;;
32633;SDS011;19043;51.012;5.648;2023-01-25T15:36:11;83.82;;;50.63;;
32633;SDS011;19043;51.012;5.648;2023-01-25T15:38:38;95.38;;;54.28;;
32633;SDS011;19043;51.012;5.648;2023-01-25T15:41:04;94.97;;;54.97;;
32633;SDS011;19043;51.012;5.648;2023-01-25T15:43:29;111.07;;;56.90;;
32633;SDS011;19043;51.012;5.648;2023-01-25T15:45:55;98.00;;;54.72;;
32633;SDS011;19043;51.012;5.648;2023-01-25T15:48:37;89.75;;;53.58;;
32633;SDS011;19043;51.012;5.648;2023-01-25T15:51:05;91.55;;;52.85;;
32633;SDS011;19043;51.012;5.648;2023-01-25T15:53:31;98.03;;;53.28;;
32633;SDS011;19043;51.012;5.648;2023-01-25T15:55:57;89.95;;;51.17;;
32633;SDS011;19043;51.012;5.648;2023-01-25T15:58:25;89.30;;;50.70;;
32633;SDS011;19043;51.012;5.648;2023-01-25T16:00:52;87.95;;;48.30;;
32633;SDS011;19043;51.012;5.648;2023-01-25T16:03:17;87.30;;;48.85;;
32633;SDS011;19043;51.012;5.648;2023-01-25T16:05:47;85.00;;;48.75;;
32633;SDS011;19043;51.012;5.648;2023-01-25T16:08:16;85.55;;;49.95;;
32633;SDS011;19043;51.012;5.648;2023-01-25T16:10:43;82.50;;;47.50;;
32633;SDS011;19043;51.012;5.648;2023-01-25T16:13:08;85.13;;;49.38;;
32633;SDS011;19043;51.012;5.648;2023-01-25T16:15:34;84.40;;;46.97;;
32633;SDS011;19043;51.012;5.648;2023-01-25T16:18:00;84.05;;;49.92;;
32633;SDS011;19043;51.012;5.648;2023-01-25T16:20:26;86.40;;;49.22;;
32633;SDS011;19043;51.012;5.648;2023-01-25T16:22:51;75.72;;;46.97;;
32633;SDS011;19043;51.012;5.648;2023-01-25T16:25:16;87.90;;;48.58;;
32633;SDS011;19043;51.012;5.648;2023-01-25T16:27:42;82.53;;;48.33;;
32633;SDS011;19043;51.012;5.648;2023-01-25T16:30:11;80.05;;;48.40;;
32633;SDS011;19043;51.012;5.648;2023-01-25T16:32:42;83.85;;;48.38;;